Time;durP1;ratioP1;P1;durP2;ratioP2;P2;SDS_P1;SDS_P2;PMS_P1;PMS_P2;Temp;Humidity;BMP_temperature;BMP_pressure;BME280_temperature;BME280_humidity;BME280_pressure;Samples;Min_cycle;Max_cycle;Signal;HPM_P1;HPM_P2
2021/04/28 00:00:28;;;;;;;1.92;1.83;;;7.30;99.90;;;;;;4967698;29;20570;-75
2021/04/28 00:02:55;;;;;;;1.73;1.40;;;7.30;99.90;;;;;;4969203;28;20163;-75
2021/04/28 00:05:21;;;;;;;0.77;0.77;;;7.30;99.90;;;;;;4967763;29;20223;-75
2021/04/28 00:07:49;;;;;;;2.60;2.47;;;7.40;99.90;;;;;;4969242;28;20552;-74
2021/04/28 00:10:17;;;;;;;2.85;2.65;;;7.40;99.90;;;;;;4969170;28;20167;-75
2021/04/28 00:12:44;;;;;;;2.38;2.17;;;7.40;99.90;;;;;;4969006;28;20160;-75
2021/04/28 00:15:17;;;;;;;1.50;1.48;;;7.40;99.90;;;;;;4969106;28;20218;-75
2021/04/28 00:17:44;;;;;;;3.20;2.95;;;7.50;99.90;;;;;;4971337;28;20251;-74
2021/04/28 00:20:12;;;;;;;1.02;1.02;;;7.50;99.90;;;;;;4972371;28;20235;-74
2021/04/28 00:22:39;;;;;;;0.60;0.60;;;7.40;99.90;;;;;;4971175;29;20206;-75
2021/04/28 00:25:09;;;;;;;1.35;1.35;;;7.30;99.90;;;;;;4972451;28;20192;-75
2021/04/28 00:27:36;;;;;;;1.13;1.13;;;7.30;99.90;;;;;;4972473;28;20184;-75
2021/04/28 00:30:09;;;;;;;3.13;1.90;;;7.20;99.90;;;;;;4971077;29;20211;-75
2021/04/28 00:32:35;;;;;;;2.03;1.85;;;7.10;99.90;;;;;;4972366;28;20505;-74
2021/04/28 00:35:03;;;;;;;1.08;1.08;;;7.10;99.90;;;;;;4972247;28;20196;-75
2021/04/28 00:37:29;;;;;;;1.88;1.77;;;7.20;99.90;;;;;;4971058;29;20551;-75
2021/04/28 00:39:55;;;;;;;1.00;0.95;;;7.10;99.90;;;;;;4972102;28;20196;-74
2021/04/28 00:42:21;;;;;;;0.52;0.52;;;7.10;99.90;;;;;;4972179;28;20160;-74
2021/04/28 00:44:47;;;;;;;1.83;1.73;;;7.20;99.90;;;;;;4972143;28;20234;-74
2021/04/28 00:47:13;;;;;;;1.77;1.67;;;7.20;99.90;;;;;;4972023;28;20168;-74
2021/04/28 00:49:39;;;;;;;2.10;1.98;;;7.30;99.90;;;;;;4971982;28;20160;-74
2021/04/28 00:52:06;;;;;;;1.45;1.20;;;7.30;99.90;;;;;;4972032;28;20168;-74
2021/04/28 00:54:32;;;;;;;2.00;1.90;;;7.30;99.90;;;;;;4974264;28;20578;-74
2021/04/28 00:57:00;;;;;;;1.42;1.33;;;7.30;99.90;;;;;;4990669;28;20315;-74
2021/04/28 00:59:26;;;;;;;6.03;1.83;;;7.30;99.90;;;;;;4989689;28;20199;-74
2021/04/28 01:01:53;;;;;;;0.52;0.52;;;7.30;99.90;;;;;;4991131;28;20160;-75
2021/04/28 01:05:05;;;;;;;0.32;0.32;;;7.30;99.90;;;;;;4991006;28;20195;-75
2021/04/28 01:07:32;;;;;;;0.95;0.90;;;7.30;99.90;;;;;;4991038;28;20175;-75
2021/04/28 01:09:59;;;;;;;0.65;0.65;;;7.30;99.90;;;;;;4991123;28;20192;-75
2021/04/28 01:12:25;;;;;;;0.43;0.43;;;7.20;99.90;;;;;;4991010;28;20222;-75
2021/04/28 01:14:52;;;;;;;1.88;1.77;;;7.20;99.90;;;;;;4989657;28;20595;-75
2021/04/28 01:17:19;;;;;;;1.42;1.33;;;7.20;99.90;;;;;;4990893;28;20171;-75
2021/04/28 01:19:46;;;;;;;2.53;1.75;;;7.20;99.90;;;;;;4990901;28;20210;-75
2021/04/28 01:22:13;;;;;;;0.93;0.93;;;7.20;99.90;;;;;;4989439;28;20238;-75
2021/04/28 01:24:39;;;;;;;1.02;1.02;;;7.20;99.90;;;;;;4990758;28;20206;-75
2021/04/28 01:27:16;;;;;;;1.35;1.25;;;7.20;99.90;;;;;;4972004;28;20204;-74
2021/04/28 01:29:43;;;;;;;0.75;0.75;;;7.20;99.90;;;;;;4971209;28;20178;-75
2021/04/28 01:32:13;;;;;;;0.50;0.50;;;7.20;99.90;;;;;;4971243;28;20160;-75
2021/04/28 01:34:41;;;;;;;1.48;1.45;;;7.30;99.90;;;;;;4970795;28;20168;-74
2021/04/28 01:37:08;;;;;;;2.35;2.25;;;7.20;99.90;;;;;;4971001;28;20293;-75
2021/04/28 01:39:35;;;;;;;2.05;1.95;;;7.20;99.90;;;;;;4971035;28;20271;-74
2021/04/28 01:42:01;;;;;;;1.27;1.23;;;7.20;99.90;;;;;;4971007;28;20223;-75
2021/04/28 01:44:27;;;;;;;0.38;0.38;;;7.30;99.90;;;;;;4969771;29;20200;-75
2021/04/28 01:46:54;;;;;;;0.90;0.90;;;7.20;99.90;;;;;;4970801;28;20663;-75
2021/04/28 01:49:21;;;;;;;0.77;0.77;;;7.20;99.90;;;;;;4969524;29;20251;-75
2021/04/28 01:51:47;;;;;;;2.97;1.95;;;7.20;99.90;;;;;;4969466;29;20176;-75
2021/04/28 01:54:16;;;;;;;8.02;1.08;;;7.10;99.90;;;;;;4969476;29;20235;-75
2021/04/28 01:56:46;;;;;;;1.80;1.73;;;7.10;99.90;;;;;;4985347;28;20258;-75
2021/04/28 01:59:15;;;;;;;0.90;0.90;;;7.10;99.90;;;;;;4970735;28;20184;-76
2021/04/28 02:01:53;;;;;;;2.50;1.38;;;7.10;99.90;;;;;;4970681;28;20180;-75
2021/04/28 02:04:20;;;;;;;5.35;2.65;;;7.10;99.90;;;;;;4969216;28;20196;-75
2021/04/28 02:06:49;;;;;;;2.15;1.92;;;7.10;99.90;;;;;;4970688;28;20224;-75
2021/04/28 02:09:15;;;;;;;1.25;1.25;;;7.10;99.90;;;;;;4970544;28;20525;-76
2021/04/28 02:11:41;;;;;;;15.55;2.78;;;7.10;99.90;;;;;;4969165;28;20190;-75
2021/04/28 02:14:11;;;;;;;0.30;0.30;;;7.10;99.90;;;;;;4985122;28;20180;-76
2021/04/28 02:16:39;;;;;;;1.33;1.25;;;7.10;99.90;;;;;;4970347;28;20192;-75
2021/04/28 02:19:08;;;;;;;0.75;0.75;;;7.10;99.90;;;;;;4969033;29;20263;-74
2021/04/28 02:21:42;;;;;;;1.95;1.85;;;7.20;99.90;;;;;;4970142;28;20219;-76
2021/04/28 02:24:11;;;;;;;0.77;0.77;;;7.10;99.90;;;;;;4970214;29;20180;-75
2021/04/28 02:26:37;;;;;;;1.42;1.33;;;7.10;99.90;;;;;;4968742;29;20263;-74
2021/04/28 02:29:03;;;;;;;2.15;1.33;;;7.00;99.90;;;;;;4970271;28;20184;-75
2021/04/28 02:31:30;;;;;;;1.15;1.05;;;7.00;99.90;;;;;;4968850;29;20180;-74
2021/04/28 02:33:56;;;;;;;1.73;1.58;;;7.10;99.90;;;;;;4970814;28;20176;-75
2021/04/28 02:36:23;;;;;;;1.45;1.35;;;7.10;99.90;;;;;;4968585;29;20195;-76
2021/04/28 02:38:59;;;;;;;1.17;1.13;;;7.10;99.90;;;;;;4968301;28;20218;-74
2021/04/28 02:41:26;;;;;;;1.90;1.80;;;7.10;99.90;;;;;;4970642;28;20164;-74
2021/04/28 02:43:54;;;;;;;2.63;2.22;;;7.10;99.90;;;;;;4970185;28;20164;-73
2021/04/28 02:46:20;;;;;;;4.78;1.30;;;7.10;99.90;;;;;;4970314;28;20187;-76
2021/04/28 02:48:51;;;;;;;2.15;1.92;;;7.10;99.90;;;;;;4970269;28;20175;-75
2021/04/28 02:51:17;;;;;;;2.55;2.40;;;7.10;99.90;;;;;;4968716;28;20187;-73
2021/04/28 02:53:45;;;;;;;1.10;1.00;;;7.10;99.90;;;;;;4969978;28;20607;-77
2021/04/28 02:56:12;;;;;;;1.33;1.00;;;7.10;99.90;;;;;;4977669;28;20203;-75
2021/04/28 02:58:40;;;;;;;1.83;1.77;;;7.10;99.90;;;;;;4985998;28;20198;-75
2021/04/28 03:01:08;;;;;;;1.25;1.17;;;7.10;99.90;;;;;;4987700;28;20175;-74
2021/04/28 03:03:35;;;;;;;1.23;1.23;;;7.20;99.90;;;;;;4989114;28;20164;-75
2021/04/28 03:06:00;;;;;;;1.40;1.25;;;7.20;99.90;;;;;;4989178;28;20199;-76
2021/04/28 03:08:27;;;;;;;0.32;0.32;;;7.20;99.90;;;;;;4989038;28;20163;-75
2021/04/28 03:10:53;;;;;;;1.73;1.63;;;7.20;99.90;;;;;;4988874;28;20245;-74
2021/04/28 03:13:20;;;;;;;1.85;1.77;;;7.20;99.90;;;;;;4988971;28;20155;-74
2021/04/28 03:15:49;;;;;;;1.45;1.33;;;7.20;99.90;;;;;;4989186;28;20191;-74
2021/04/28 03:18:17;;;;;;;1.30;1.25;;;7.30;99.90;;;;;;4988839;28;20155;-75
2021/04/28 03:20:47;;;;;;;1.80;1.70;;;7.20;99.90;;;;;;4988642;28;20230;-76
2021/04/28 03:23:14;;;;;;;0.85;0.85;;;7.30;99.90;;;;;;4988774;28;20175;-75
2021/04/28 03:25:42;;;;;;;3.30;1.33;;;7.30;99.90;;;;;;4988717;28;20259;-75
2021/04/28 03:28:09;;;;;;;2.55;1.40;;;7.40;99.90;;;;;;4987715;28;20175;-75
2021/04/28 03:30:35;;;;;;;1.63;1.52;;;7.30;99.90;;;;;;4988609;28;20160;-75
2021/04/28 03:33:01;;;;;;;3.45;3.25;;;7.30;99.90;;;;;;4988920;28;20171;-75
2021/04/28 03:35:27;;;;;;;0.47;0.47;;;7.30;99.90;;;;;;4987330;28;20231;-74
2021/04/28 03:37:53;;;;;;;2.35;2.25;;;7.30;99.90;;;;;;4988649;28;20212;-75
2021/04/28 03:40:20;;;;;;;1.02;0.98;;;7.30;99.90;;;;;;4987235;28;20199;-74
2021/04/28 03:42:46;;;;;;;3.70;2.20;;;7.30;99.90;;;;;;4988077;28;20179;-76
2021/04/28 03:45:12;;;;;;;3.53;3.33;;;7.30;99.90;;;;;;4988559;28;20168;-77
2021/04/28 03:47:38;;;;;;;2.90;2.80;;;7.30;99.90;;;;;;4989254;28;20207;-75
2021/04/28 03:50:06;;;;;;;1.95;1.83;;;7.30;99.90;;;;;;4989777;28;20171;-75
2021/04/28 03:52:32;;;;;;;4.28;2.50;;;7.20;99.90;;;;;;4992368;28;20167;-75
2021/04/28 03:54:59;;;;;;;0.95;0.95;;;7.20;99.90;;;;;;4992171;28;20285;-75
2021/04/28 03:57:25;;;;;;;2.38;2.28;;;7.20;99.90;;;;;;4986381;28;20206;-75
2021/04/28 03:59:51;;;;;;;1.55;1.45;;;7.20;99.90;;;;;;4972732;28;20195;-74
2021/04/28 04:02:17;;;;;;;0.98;0.98;;;7.30;99.90;;;;;;4971930;28;20168;-73
2021/04/28 04:04:43;;;;;;;3.97;3.38;;;7.30;99.90;;;;;;4971373;29;20362;-73
2021/04/28 04:07:09;;;;;;;1.73;1.65;;;7.30;99.90;;;;;;4971458;29;20207;-75
2021/04/28 04:09:35;;;;;;;1.23;1.23;;;7.30;99.90;;;;;;4972502;28;20612;-73
2021/04/28 04:12:00;;;;;;;3.10;2.10;;;7.30;99.90;;;;;;4971208;29;20240;-73
2021/04/28 04:14:26;;;;;;;1.92;1.75;;;7.40;99.90;;;;;;4971600;29;20188;-75
2021/04/28 04:16:52;;;;;;;1.20;1.20;;;7.40;99.90;;;;;;4972481;28;20219;-74
2021/04/28 04:19:18;;;;;;;0.85;0.85;;;7.40;99.90;;;;;;4972457;28;20205;-74
2021/04/28 04:21:44;;;;;;;1.35;1.25;;;7.30;99.90;;;;;;4973022;28;20227;-75
2021/04/28 04:24:10;;;;;;;1.35;1.35;;;7.30;99.90;;;;;;4972538;28;20619;-74
2021/04/28 04:26:36;;;;;;;1.67;1.58;;;7.30;99.90;;;;;;4972518;28;20192;-77
2021/04/28 04:29:04;;;;;;;0.50;0.50;;;7.40;99.90;;;;;;4972806;28;20188;-73
2021/04/28 04:31:31;;;;;;;1.70;1.60;;;7.30;99.90;;;;;;4971547;29;20191;-74
2021/04/28 04:33:57;;;;;;;3.90;0.77;;;7.30;99.90;;;;;;4972235;28;20239;-74
2021/04/28 04:36:23;;;;;;;2.70;1.17;;;7.20;99.90;;;;;;4971973;28;20200;-74
2021/04/28 04:38:49;;;;;;;2.05;1.95;;;7.30;99.90;;;;;;4970898;29;20268;-75
2021/04/28 04:41:15;;;;;;;0.47;0.47;;;7.40;99.90;;;;;;4970520;29;20161;-75
2021/04/28 04:43:41;;;;;;;3.40;1.42;;;7.40;99.90;;;;;;4971927;28;20179;-73
2021/04/28 04:46:09;;;;;;;1.65;1.63;;;7.50;99.90;;;;;;4970180;28;20552;-73
2021/04/28 04:48:35;;;;;;;1.85;1.75;;;7.50;99.90;;;;;;4972003;28;20565;-73
2021/04/28 04:51:01;;;;;;;3.13;1.85;;;7.60;99.90;;;;;;4986865;28;20168;-75
2021/04/28 04:53:27;;;;;;;2.05;1.88;;;7.50;99.90;;;;;;4970621;28;20183;-74
2021/04/28 04:55:52;;;;;;;2.65;2.40;;;7.50;99.90;;;;;;4981835;28;20195;-74
2021/04/28 04:58:18;;;;;;;1.35;1.35;;;7.60;99.90;;;;;;4977759;28;20199;-74
2021/04/28 05:00:45;;;;;;;1.50;1.40;;;7.60;99.90;;;;;;4972064;28;20196;-75
2021/04/28 05:03:11;;;;;;;1.10;1.10;;;7.60;99.90;;;;;;4972259;28;20171;-75
2021/04/28 05:05:37;;;;;;;1.77;1.75;;;7.70;99.90;;;;;;4971664;28;20200;-74
2021/04/28 05:08:04;;;;;;;4.25;3.88;;;7.70;99.90;;;;;;4971677;28;20165;-74
2021/04/28 05:10:29;;;;;;;2.78;2.65;;;7.80;99.90;;;;;;4970347;29;20215;-75
2021/04/28 05:12:55;;;;;;;1.63;1.58;;;7.80;99.90;;;;;;4971706;28;20160;-74
2021/04/28 05:15:21;;;;;;;2.08;1.60;;;7.80;99.90;;;;;;4972534;28;20631;-74
2021/04/28 05:17:47;;;;;;;2.88;1.67;;;7.80;99.90;;;;;;4972658;28;20227;-74
2021/04/28 05:20:14;;;;;;;3.97;1.92;;;7.90;99.90;;;;;;4971254;29;20251;-74
2021/04/28 05:22:40;;;;;;;1.70;1.52;;;7.90;99.90;;;;;;4972903;28;20156;-74
2021/04/28 05:25:07;;;;;;;1.27;1.27;;;8.00;99.90;;;;;;4971324;29;20264;-74
2021/04/28 05:27:34;;;;;;;2.42;2.22;;;8.10;99.90;;;;;;4972591;28;20192;-74
2021/04/28 05:30:00;;;;;;;0.80;0.80;;;8.10;99.90;;;;;;4972891;28;20620;-73
2021/04/28 05:32:26;;;;;;;2.17;1.98;;;8.10;99.90;;;;;;4972404;29;20183;-73
2021/04/28 05:34:53;;;;;;;2.42;1.33;;;8.10;99.90;;;;;;4971513;29;20184;-74
2021/04/28 05:37:20;;;;;;;1.23;1.15;;;8.10;99.90;;;;;;4971437;29;20201;-74
2021/04/28 05:39:47;;;;;;;1.13;1.13;;;8.20;99.90;;;;;;4972303;28;20192;-74
2021/04/28 05:42:14;;;;;;;3.75;1.70;;;8.30;99.90;;;;;;4971874;28;20315;-74
2021/04/28 05:44:40;;;;;;;3.70;3.50;;;8.40;99.90;;;;;;4971982;28;20667;-74
2021/04/28 05:47:06;;;;;;;1.88;1.77;;;8.50;99.90;;;;;;4971421;28;20220;-74
2021/04/28 05:49:31;;;;;;;2.88;2.78;;;8.60;99.90;;;;;;4971450;28;20175;-75
2021/04/28 05:51:57;;;;;;;1.90;1.27;;;8.50;99.90;;;;;;4969653;29;20655;-74
2021/04/28 05:54:23;;;;;;;4.15;2.90;;;8.60;99.90;;;;;;4970556;28;20168;-75
2021/04/28 05:56:49;;;;;;;4.35;3.53;;;8.70;99.90;;;;;;4986400;28;20218;-74
2021/04/28 05:59:15;;;;;;;1.23;1.23;;;8.80;99.90;;;;;;4969097;29;20251;-74
2021/04/28 06:01:41;;;;;;;0.65;0.65;;;8.80;99.90;;;;;;4970495;28;20184;-74
2021/04/28 06:04:07;;;;;;;1.38;1.27;;;8.80;99.90;;;;;;4969326;28;20168;-73
2021/04/28 06:06:33;;;;;;;1.33;1.23;;;8.90;99.90;;;;;;4968881;29;20260;-73
2021/04/28 06:08:59;;;;;;;1.13;1.13;;;8.60;99.90;;;;;;4970305;28;20178;-73
2021/04/28 06:11:25;;;;;;;1.20;1.17;;;8.70;99.90;;;;;;4968139;28;20645;-75
2021/04/28 06:13:51;;;;;;;2.75;2.55;;;8.80;99.90;;;;;;4968294;28;20227;-75
2021/04/28 06:16:17;;;;;;;2.30;2.20;;;8.70;99.90;;;;;;4970282;28;20188;-74
2021/04/28 06:18:44;;;;;;;1.00;0.77;;;8.70;99.90;;;;;;4970104;28;20168;-74
2021/04/28 06:21:10;;;;;;;1.77;1.77;;;8.70;99.90;;;;;;4969539;28;20294;-75
2021/04/28 06:23:37;;;;;;;3.03;2.83;;;8.90;99.90;;;;;;4968637;28;20180;-73
2021/04/28 06:26:05;;;;;;;4.40;3.97;;;8.70;99.90;;;;;;4970024;28;20157;-74
2021/04/28 06:28:31;;;;;;;0.75;0.75;;;8.80;99.90;;;;;;4969737;28;20195;-74
2021/04/28 06:30:56;;;;;;;1.20;1.20;;;8.80;99.90;;;;;;4968707;28;20230;-74
2021/04/28 06:33:23;;;;;;;4.13;3.00;;;8.90;99.90;;;;;;4970122;28;20230;-78
2021/04/28 06:35:49;;;;;;;1.52;1.42;;;8.90;99.90;;;;;;4969168;29;20183;-74
2021/04/28 06:38:15;;;;;;;1.60;1.50;;;8.90;99.90;;;;;;4969915;28;20188;-74
2021/04/28 06:40:41;;;;;;;1.17;1.13;;;9.00;99.90;;;;;;4969890;28;20697;-75
2021/04/28 06:43:08;;;;;;;3.55;3.25;;;9.00;99.90;;;;;;4968513;29;20235;-75
2021/04/28 06:45:35;;;;;;;1.17;1.10;;;9.00;99.90;;;;;;4968555;28;20172;-77
2021/04/28 06:48:03;;;;;;;6.93;3.65;;;9.00;99.90;;;;;;4969512;28;20196;-77
2021/04/28 06:50:29;;;;;;;0.88;0.88;;;8.90;99.90;;;;;;4980413;28;20255;-77
2021/04/28 06:52:55;;;;;;;1.45;1.40;;;8.70;99.90;;;;;;4973750;28;20183;-76
2021/04/28 06:55:21;;;;;;;1.38;1.30;;;8.60;99.90;;;;;;4987987;28;20210;-76
2021/04/28 06:57:53;;;;;;;0.85;0.85;;;8.70;99.90;;;;;;4988545;28;20273;-74
2021/04/28 07:00:20;;;;;;;3.15;2.95;;;8.80;99.90;;;;;;4988941;28;20226;-75
2021/04/28 07:02:46;;;;;;;2.05;1.95;;;8.90;99.90;;;;;;4990347;28;20175;-75
2021/04/28 07:05:13;;;;;;;2.22;1.95;;;8.90;99.90;;;;;;4990350;28;20215;-77
2021/04/28 07:07:38;;;;;;;3.60;2.10;;;8.90;99.90;;;;;;4987805;28;20196;-75
2021/04/28 07:10:06;;;;;;;1.65;1.55;;;9.10;99.90;;;;;;4974578;28;20210;-74
2021/04/28 07:12:33;;;;;;;4.05;1.40;;;9.30;99.90;;;;;;4970120;29;20160;-75
2021/04/28 07:14:58;;;;;;;2.65;1.73;;;9.20;99.90;;;;;;4969823;29;20222;-75
2021/04/28 07:17:24;;;;;;;2.17;2.08;;;9.40;99.90;;;;;;4969626;29;20219;-77
2021/04/28 07:19:51;;;;;;;1.65;1.55;;;9.40;99.90;;;;;;4969773;28;20195;-77
2021/04/28 07:22:17;;;;;;;2.83;1.98;;;9.60;99.90;;;;;;4969356;29;20219;-75
2021/04/28 07:24:43;;;;;;;2.30;2.08;;;9.40;99.90;;;;;;4969656;28;20638;-74
2021/04/28 07:27:09;;;;;;;1.88;1.80;;;9.50;99.90;;;;;;4995650;28;20205;-74
2021/04/28 07:29:35;;;;;;;5.85;4.78;;;9.70;99.90;;;;;;4991789;28;20194;-76
2021/04/28 07:32:02;;;;;;;1.67;1.58;;;9.80;99.90;;;;;;4991708;28;20206;-75
2021/04/28 07:34:29;;;;;;;3.70;3.40;;;9.90;99.90;;;;;;4991512;28;20179;-75
2021/04/28 07:36:56;;;;;;;2.20;2.10;;;10.10;99.90;;;;;;4992787;28;20167;-76
2021/04/28 07:39:22;;;;;;;2.30;2.08;;;10.20;99.90;;;;;;4992695;28;20195;-75
2021/04/28 07:41:48;;;;;;;2.15;2.03;;;10.30;99.90;;;;;;4992336;28;20223;-75
2021/04/28 07:44:15;;;;;;;3.13;2.83;;;10.20;99.90;;;;;;4989907;28;20191;-76
2021/04/28 07:46:42;;;;;;;3.80;3.22;;;10.30;99.90;;;;;;4980963;28;20176;-76
2021/04/28 07:49:08;;;;;;;2.47;1.98;;;10.10;99.90;;;;;;4981841;28;20175;-77
2021/04/28 07:51:35;;;;;;;1.27;1.27;;;10.20;99.90;;;;;;4992612;28;20183;-77
2021/04/28 07:54:01;;;;;;;1.58;1.48;;;10.30;99.90;;;;;;4979069;28;20210;-77
2021/04/28 07:56:27;;;;;;;3.78;3.42;;;10.30;99.90;;;;;;4987951;28;20188;-76
2021/04/28 07:58:53;;;;;;;1.60;1.60;;;10.60;99.90;;;;;;4974190;28;20206;-76
2021/04/28 08:01:20;;;;;;;0.93;0.93;;;10.70;99.90;;;;;;4973048;28;20171;-76
2021/04/28 08:03:46;;;;;;;1.05;1.00;;;10.90;99.90;;;;;;4972889;28;20196;-76
2021/04/28 08:06:12;;;;;;;1.92;1.83;;;10.90;99.90;;;;;;4972957;28;20169;-76
2021/04/28 08:08:38;;;;;;;1.90;1.80;;;11.10;99.90;;;;;;4972826;28;20160;-75
2021/04/28 08:11:04;;;;;;;2.65;2.45;;;11.10;99.90;;;;;;4972571;28;20224;-75
2021/04/28 08:13:31;;;;;;;3.20;2.97;;;11.20;99.90;;;;;;4972782;28;20177;-75
2021/04/28 08:15:57;;;;;;;1.50;1.40;;;11.20;99.90;;;;;;4971622;28;20165;-74
2021/04/28 08:18:23;;;;;;;3.33;3.03;;;11.10;99.90;;;;;;4976251;28;20164;-74
2021/04/28 08:20:49;;;;;;;2.45;2.33;;;11.10;99.90;;;;;;4991985;28;20230;-74
2021/04/28 08:23:15;;;;;;;1.42;1.30;;;11.40;99.90;;;;;;4991793;28;20234;-73
2021/04/28 08:25:42;;;;;;;3.83;3.15;;;11.50;99.90;;;;;;4992114;28;20191;-75
2021/04/28 08:28:09;;;;;;;2.90;2.08;;;11.30;99.90;;;;;;4992017;28;20219;-75
2021/04/28 08:30:35;;;;;;;4.25;0.82;;;11.40;99.90;;;;;;4978373;28;20191;-77
2021/04/28 08:33:01;;;;;;;2.42;1.90;;;11.40;99.90;;;;;;4982399;28;20191;-75
2021/04/28 08:35:27;;;;;;;5.07;3.20;;;11.20;99.90;;;;;;4983610;28;20231;-75
2021/04/28 08:37:53;;;;;;;3.72;2.95;;;11.30;99.90;;;;;;4975002;28;20207;-76
2021/04/28 08:40:20;;;;;;;2.03;1.92;;;11.70;99.90;;;;;;4971357;28;20204;-75
2021/04/28 08:42:47;;;;;;;1.60;1.50;;;12.00;99.90;;;;;;4971772;28;20164;-76
2021/04/28 08:45:14;;;;;;;1.85;1.75;;;12.30;99.90;;;;;;4970236;29;20184;-76
2021/04/28 08:47:42;;;;;;;5.07;3.42;;;12.20;99.90;;;;;;4970613;28;20234;-76
2021/04/28 08:50:10;;;;;;;1.13;1.13;;;11.80;99.90;;;;;;4971732;28;20204;-76
2021/04/28 08:52:37;;;;;;;1.92;1.83;;;12.00;99.90;;;;;;4970290;29;20200;-77
2021/04/28 08:55:05;;;;;;;4.72;2.53;;;12.20;99.90;;;;;;4974447;28;20192;-76
2021/04/28 08:57:31;;;;;;;1.70;1.60;;;12.00;99.90;;;;;;4982472;28;20206;-76
2021/04/28 08:59:57;;;;;;;5.72;3.42;;;12.00;99.90;;;;;;4969784;29;20195;-77
2021/04/28 09:02:25;;;;;;;1.98;1.85;;;12.30;99.90;;;;;;4973020;28;20176;-75
2021/04/28 09:05:10;;;;;;;1.80;1.70;;;12.60;99.90;;;;;;4990249;28;20172;-76
2021/04/28 09:07:41;;;;;;;1.88;1.77;;;12.50;99.90;;;;;;4971327;28;20192;-75
2021/04/28 09:10:10;;;;;;;2.67;2.47;;;12.30;99.90;;;;;;4971653;28;20179;-76
2021/04/28 09:12:36;;;;;;;1.50;1.48;;;12.30;99.90;;;;;;4971857;28;20192;-75
2021/04/28 09:15:06;;;;;;;4.03;3.60;;;12.60;99.90;;;;;;4970963;28;20247;-75
2021/04/28 09:17:50;;;;;;;1.02;1.02;;;12.80;99.90;;;;;;4973510;28;20211;-77
2021/04/28 09:20:22;;;;;;;2.28;2.08;;;13.00;99.90;;;;;;4989273;28;20203;-77
2021/04/28 09:23:06;;;;;;;2.10;1.95;;;12.90;99.90;;;;;;4989993;28;20168;-77
2021/04/28 09:25:46;;;;;;;2.65;1.92;;;12.70;99.90;;;;;;4989928;28;20162;-77
2021/04/28 09:28:27;;;;;;;6.88;3.15;;;12.80;99.90;;;;;;4990517;28;20183;-77
2021/04/28 09:31:05;;;;;;;4.00;2.95;;;12.90;99.90;;;;;;4989593;28;20458;-76
2021/04/28 09:33:40;;;;;;;3.03;1.60;;;12.90;99.90;;;;;;4989608;28;20277;-76
2021/04/28 09:36:13;;;;;;;3.97;3.20;;;12.90;99.90;;;;;;4990157;28;20222;-76
2021/04/28 09:39:05;;;;;;;2.10;1.80;;;13.00;99.90;;;;;;4990262;28;20191;-75
2021/04/28 09:41:44;;;;;;;2.60;2.20;;;12.80;99.90;;;;;;4990511;28;20219;-76
2021/04/28 09:44:19;;;;;;;1.70;1.60;;;12.50;99.90;;;;;;4989875;28;20203;-76
2021/04/28 09:46:58;;;;;;;1.90;1.70;;;12.20;99.90;;;;;;4989633;28;20488;-78
2021/04/28 09:49:25;;;;;;;2.60;2.38;;;12.00;99.90;;;;;;4992060;28;20231;-76
2021/04/28 09:51:57;;;;;;;0.30;0.30;;;12.20;99.90;;;;;;4992995;28;20163;-76
2021/04/28 09:54:29;;;;;;;2.13;1.48;;;12.50;99.90;;;;;;4992513;28;20198;-75
2021/04/28 09:56:55;;;;;;;4.63;2.70;;;12.70;99.90;;;;;;4989616;28;20757;-75
2021/04/28 09:59:22;;;;;;;2.08;1.98;;;12.70;99.90;;;;;;4982718;28;20258;-77
2021/04/28 10:01:56;;;;;;;1.45;1.42;;;12.80;99.90;;;;;;4969319;29;20239;-76
2021/04/28 10:04:27;;;;;;;2.03;1.92;;;12.80;99.90;;;;;;4968695;29;20606;-76
2021/04/28 10:06:53;;;;;;;1.73;1.63;;;13.10;99.90;;;;;;4968561;29;20216;-76
2021/04/28 10:09:29;;;;;;;2.67;2.38;;;13.20;99.90;;;;;;4970542;28;20164;-75
2021/04/28 10:11:56;;;;;;;2.20;2.05;;;13.30;99.90;;;;;;4970416;28;20152;-75
2021/04/28 10:14:23;;;;;;;1.38;1.38;;;13.40;99.90;;;;;;4970000;28;20228;-77
2021/04/28 10:16:50;;;;;;;2.35;1.92;;;13.70;99.90;;;;;;4969933;28;20191;-76
2021/04/28 10:19:16;;;;;;;0.55;0.55;;;13.50;99.90;;;;;;4970265;28;20194;-76
2021/04/28 10:21:47;;;;;;;1.75;1.45;;;13.30;99.90;;;;;;4969961;29;20246;-77
2021/04/28 10:24:15;;;;;;;2.63;2.10;;;13.50;99.90;;;;;;4968564;29;20178;-76
2021/04/28 10:26:41;;;;;;;3.05;1.27;;;13.30;99.90;;;;;;4968694;29;20630;-76
2021/04/28 10:29:08;;;;;;;1.17;1.17;;;13.20;99.90;;;;;;4970138;28;20163;-76
2021/04/28 10:31:37;;;;;;;1.67;1.60;;;13.40;99.90;;;;;;4970454;28;20168;-76
2021/04/28 10:34:06;;;;;;;1.40;1.40;;;13.60;99.90;;;;;;4979673;28;20266;-75
2021/04/28 10:36:33;;;;;;;3.17;2.95;;;13.90;99.90;;;;;;4971222;28;20199;-76
2021/04/28 10:38:59;;;;;;;0.30;0.30;;;14.20;99.90;;;;;;4969011;29;20199;-76
2021/04/28 10:41:37;;;;;;;2.53;2.33;;;14.80;99.90;;;;;;4967101;28;20289;-75
2021/04/28 10:44:06;;;;;;;4.32;2.42;;;15.20;99.90;;;;;;4977744;28;20229;-76
2021/04/28 10:46:32;;;;;;;3.25;2.13;;;15.40;99.90;;;;;;4988117;28;20171;-76
2021/04/28 10:49:16;;;;;;;3.90;2.63;;;15.40;99.90;;;;;;4987343;28;20209;-76
2021/04/28 10:51:45;;;;;;;1.88;1.45;;;15.60;99.90;;;;;;4988120;28;20174;-75
2021/04/28 10:54:26;;;;;;;1.95;1.85;;;14.80;99.90;;;;;;4991011;28;20270;-75
2021/04/28 10:56:58;;;;;;;1.50;1.33;;;14.60;99.90;;;;;;4971767;28;20288;-75
2021/04/28 10:59:41;;;;;;;6.20;2.80;;;14.50;99.90;;;;;;4988503;28;20187;-74
2021/04/28 11:02:08;;;;;;;2.45;2.03;;;14.10;99.90;;;;;;4987157;28;20235;-77
2021/04/28 11:04:34;;;;;;;3.15;2.92;;;14.10;99.90;;;;;;4988017;28;20325;-76
2021/04/28 11:07:00;;;;;;;1.35;1.35;;;14.20;99.90;;;;;;4984083;28;20183;-75
2021/04/28 11:09:27;;;;;;;1.00;0.95;;;14.50;99.90;;;;;;4976599;28;20274;-74
2021/04/28 11:11:55;;;;;;;28.02;2.38;;;14.50;99.90;;;;;;4987955;28;20660;-75
2021/04/28 11:14:30;;;;;;;1.67;1.58;;;14.70;99.90;;;;;;4987872;28;20191;-73
2021/04/28 11:17:15;;;;;;;4.10;2.08;;;14.60;99.90;;;;;;4988569;28;20218;-74
2021/04/28 11:19:42;;;;;;;1.08;1.08;;;14.20;99.90;;;;;;4988509;28;20191;-73
2021/04/28 11:22:15;;;;;;;1.83;1.67;;;14.10;99.90;;;;;;4988409;28;20258;-73
2021/04/28 11:25:11;;;;;;;0.95;0.95;;;14.40;99.90;;;;;;4987979;28;20214;-74
2021/04/28 11:27:43;;;;;;;1.17;1.17;;;14.50;99.90;;;;;;4986700;28;20209;-73
2021/04/28 11:30:24;;;;;;;2.72;1.33;;;14.10;99.90;;;;;;4987411;28;20266;-75
2021/04/28 11:33:05;;;;;;;2.63;2.42;;;13.70;99.90;;;;;;4987221;28;20178;-74
2021/04/28 11:35:31;;;;;;;1.05;1.05;;;13.90;99.90;;;;;;4988234;28;20210;-74
2021/04/28 11:38:09;;;;;;;2.97;1.67;;;13.70;99.90;;;;;;4988519;28;20199;-74
2021/04/28 11:41:09;;;;;;;6.55;2.72;;;13.50;99.90;;;;;;4988509;28;20202;-74
2021/04/28 11:43:38;;;;;;;1.67;0.68;;;13.30;99.90;;;;;;4988407;28;20156;-74
2021/04/28 11:46:10;;;;;;;4.93;1.98;;;13.20;99.90;;;;;;4987668;28;20238;-73
2021/04/28 11:48:38;;;;;;;2.33;2.15;;;13.40;99.90;;;;;;4986760;28;20203;-74
2021/04/28 11:51:11;;;;;;;6.28;0.82;;;13.80;99.90;;;;;;4988412;28;20164;-74
2021/04/28 11:53:43;;;;;;;1.17;1.13;;;13.90;99.90;;;;;;4988306;28;20222;-73
2021/04/28 11:56:09;;;;;;;4.18;3.28;;;13.80;99.90;;;;;;4987387;28;20179;-73
2021/04/28 11:58:35;;;;;;;1.38;1.35;;;13.80;99.90;;;;;;4986873;28;20179;-73
2021/04/28 12:01:13;;;;;;;1.20;1.15;;;14.00;99.90;;;;;;4986766;28;20203;-74
2021/04/28 12:03:55;;;;;;;1.52;1.08;;;14.00;99.90;;;;;;4987606;28;20148;-75
2021/04/28 12:06:30;;;;;;;1.15;1.13;;;14.50;99.90;;;;;;4986678;28;20191;-74
2021/04/28 12:09:12;;;;;;;2.22;1.55;;;14.20;99.90;;;;;;4988398;28;20615;-74
2021/04/28 12:11:40;;;;;;;3.42;2.17;;;14.40;99.90;;;;;;4989151;28;20579;-73
2021/04/28 12:14:07;;;;;;;3.30;2.47;;;14.90;99.90;;;;;;4990077;28;20254;-74
2021/04/28 12:16:39;;;;;;;0.75;0.73;;;14.70;99.90;;;;;;4990857;28;20180;-73
2021/04/28 12:19:12;;;;;;;1.77;1.67;;;14.60;99.90;;;;;;4991574;28;20199;-74
2021/04/28 12:21:54;;;;;;;1.15;1.15;;;14.50;99.90;;;;;;4991553;28;20310;-74
2021/04/28 12:24:28;;;;;;;1.75;1.60;;;14.40;99.90;;;;;;4989384;28;20194;-74
2021/04/28 12:27:12;;;;;;;1.38;1.38;;;14.40;99.90;;;;;;4988655;28;20186;-74
2021/04/28 12:29:49;;;;;;;0.43;0.40;;;14.20;99.90;;;;;;4992910;28;20243;-74
2021/04/28 12:32:17;;;;;;;1.60;1.05;;;14.20;99.90;;;;;;4992514;28;20159;-75
2021/04/28 12:34:44;;;;;;;1.38;1.25;;;14.30;99.90;;;;;;4991256;28;20199;-74
2021/04/28 12:37:23;;;;;;;1.90;1.80;;;14.30;99.90;;;;;;4976216;28;20187;-75
2021/04/28 12:39:55;;;;;;;3.10;2.80;;;14.10;99.90;;;;;;4972109;28;20290;-74
2021/04/28 12:42:23;;;;;;;1.92;1.83;;;14.10;99.90;;;;;;4972138;28;20172;-75
2021/04/28 12:44:50;;;;;;;4.80;2.75;;;14.10;99.90;;;;;;4971357;28;20188;-73
2021/04/28 12:47:16;;;;;;;0.82;0.82;;;14.20;99.90;;;;;;4971667;28;20183;-74
2021/04/28 12:50:04;;;;;;;1.77;1.45;;;13.90;99.90;;;;;;4974852;28;20176;-75
2021/04/28 12:52:40;;;;;;;0.77;0.77;;;13.70;99.90;;;;;;4989703;28;20203;-75
2021/04/28 12:55:32;;;;;;;2.03;1.63;;;13.50;99.90;;;;;;4990814;28;20195;-75
2021/04/28 12:58:01;;;;;;;0.85;0.85;;;13.60;99.90;;;;;;4979070;28;20243;-74
2021/04/28 13:00:34;;;;;;;1.13;1.13;;;13.50;99.90;;;;;;4974437;28;20195;-73